Terminal Aerodrome Forecast
Issued by NWS Pocatello, ID

Current Version | Previous Version | Text Only | Print | Product List | Glossary On
Versions: 1 2 3 4 5 6 7 8 9 10 11 12 13 14 15 16 17 18 19 20 21 22 23 24
000
FTUS45 KPIH 230000 AAA
TAFIDA
TAF AMD
KIDA 230009Z 2300/2324 VRB05KT P6SM -SHRA VCTS SCT025 OVC040CB
      TEMPO 2301/2302 VRB15G30KT 4SM -TSRA BKN025 OVC040CB
     FM230400 VRB05KT P6SM VCSH BKN035 OVC060
     FM231000 18006KT 4SM BR OVC060
     FM231400 21006KT P6SM -SHRA SCT015 OVC035
     FM231700 21006KT P6SM VCTS SCT015 BKN040CB BKN110=

USA.gov is the U.S. government's official web portal to all federal, state and local government web resources and services.